createdAt,value
2018-11-30T00:00:34.671Z,0
2018-11-30T00:01:34.683Z,0
2018-11-30T00:02:34.697Z,0
2018-11-30T00:03:49.369Z,0
2018-11-30T00:04:34.719Z,0
2018-11-30T00:05:34.740Z,0
2018-11-30T00:06:34.745Z,0
2018-11-30T00:07:49.415Z,0
2018-11-30T00:08:34.819Z,0
2018-11-30T00:09:34.789Z,0
2018-11-30T00:10:34.800Z,0
2018-11-30T00:11:34.806Z,0
2018-11-30T00:12:34.817Z,0
2018-11-30T00:13:49.487Z,0
2018-11-30T00:14:34.842Z,0
2018-11-30T00:15:34.852Z,0
2018-11-30T00:16:35.092Z,0
2018-11-30T00:17:34.877Z,0
2018-11-30T00:18:34.895Z,0
2018-11-30T00:19:34.907Z,0
2018-11-30T00:20:34.915Z,0
2018-11-30T00:21:34.928Z,0
2018-11-30T00:22:34.940Z,0
2018-11-30T00:23:34.953Z,0
2018-11-30T00:24:34.960Z,0
2018-11-30T00:25:35.007Z,0
2018-11-30T00:26:34.989Z,0
2018-11-30T00:27:35.002Z,0
2018-11-30T00:28:35.014Z,0
2018-11-30T00:29:49.688Z,0
2018-11-30T00:30:35.040Z,0
2018-11-30T00:31:35.048Z,0
2018-11-30T00:32:35.074Z,0
2018-11-30T00:33:35.072Z,0
2018-11-30T00:34:35.087Z,0
2018-11-30T00:35:49.759Z,0
2018-11-30T00:36:49.773Z,0
2018-11-30T00:37:35.120Z,0
2018-11-30T00:38:36.302Z,0
2018-11-30T00:39:35.147Z,0
2018-11-30T00:40:35.155Z,0
2018-11-30T00:41:49.830Z,0
2018-11-30T00:42:35.228Z,0
2018-11-30T00:43:35.196Z,0
2018-11-30T00:44:49.871Z,0
2018-11-30T00:45:35.221Z,0
2018-11-30T00:46:35.233Z,0
2018-11-30T00:47:35.250Z,0
2018-11-30T00:48:35.262Z,0
2018-11-30T00:49:35.276Z,0
2018-11-30T00:50:35.507Z,0
2018-11-30T00:51:35.295Z,0
2018-11-30T00:52:35.306Z,0
2018-11-30T00:53:35.324Z,0
2018-11-30T00:54:35.329Z,0
2018-11-30T00:56:35.354Z,0
2018-11-30T00:57:50.030Z,0
2018-11-30T00:58:35.385Z,0
2018-11-30T00:59:35.398Z,0
2018-11-30T01:00:35.410Z,0
2018-11-30T01:01:35.417Z,0
2018-11-30T01:02:35.428Z,0
2018-11-30T01:03:35.444Z,0
2018-11-30T01:04:35.454Z,0
2018-11-30T01:05:35.465Z,0
2018-11-30T01:06:35.479Z,0
2018-11-30T01:07:35.491Z,0
2018-11-30T01:08:35.507Z,0
2018-11-30T01:09:50.181Z,0
2018-11-30T01:11:35.537Z,0
2018-11-30T01:12:50.211Z,0
2018-11-30T01:14:35.579Z,0
2018-11-30T01:15:35.593Z,0
2018-11-30T01:16:50.261Z,0
2018-11-30T01:17:35.616Z,0
2018-11-30T01:18:35.632Z,0
2018-11-30T01:19:35.640Z,0
2018-11-30T01:20:35.649Z,0
2018-11-30T01:21:50.324Z,0
2018-11-30T01:22:35.677Z,0
2018-11-30T01:23:50.347Z,0
2018-11-30T01:24:50.357Z,0
2018-11-30T01:25:35.716Z,0
2018-11-30T01:26:35.723Z,0
2018-11-30T01:27:35.735Z,0
2018-11-30T01:28:35.800Z,0
2018-11-30T01:29:35.762Z,0
2018-11-30T01:30:35.776Z,0
2018-11-30T01:31:35.784Z,0
2018-11-30T01:32:50.473Z,0
2018-11-30T01:33:35.805Z,0
2018-11-30T01:34:35.820Z,0
2018-11-30T01:35:35.837Z,0
2018-11-30T01:36:35.845Z,0
2018-11-30T01:37:35.861Z,0
2018-11-30T01:38:50.536Z,0
2018-11-30T01:39:50.544Z,0
2018-11-30T01:40:35.894Z,0
2018-11-30T01:41:35.911Z,0
2018-11-30T01:43:50.592Z,0
2018-11-30T01:44:50.604Z,0
2018-11-30T01:45:35.955Z,0
2018-11-30T01:46:35.971Z,0
2018-11-30T01:47:35.984Z,0
2018-11-30T01:48:50.656Z,0
2018-11-30T01:49:36.006Z,0
2018-11-30T01:50:36.020Z,0
2018-11-30T01:51:50.696Z,0
2018-11-30T01:52:36.061Z,0
2018-11-30T01:53:36.064Z,0
2018-11-30T01:54:36.075Z,0
2018-11-30T01:55:50.741Z,0
2018-11-30T01:56:36.146Z,0
2018-11-30T01:57:36.110Z,0
2018-11-30T01:58:36.120Z,0
2018-11-30T01:59:36.127Z,0
2018-11-30T02:00:36.141Z,0
2018-11-30T02:01:36.151Z,0
2018-11-30T02:02:36.170Z,0
2018-11-30T02:03:36.175Z,0
2018-11-30T02:04:50.852Z,0
2018-11-30T02:05:36.215Z,0
2018-11-30T02:06:36.218Z,0
2018-11-30T02:07:36.226Z,0
2018-11-30T02:09:50.918Z,0
2018-11-30T02:10:50.926Z,0
2018-11-30T02:11:50.937Z,0
2018-11-30T02:12:36.300Z,0
2018-11-30T02:13:36.299Z,0
2018-11-30T02:14:36.314Z,0
2018-11-30T02:15:36.329Z,0
2018-11-30T02:16:50.996Z,0
2018-11-30T02:17:36.352Z,0
2018-11-30T02:18:36.368Z,0
2018-11-30T02:20:05.702Z,0
2018-11-30T02:20:36.389Z,0
2018-11-30T02:21:36.403Z,0
2018-11-30T02:22:36.410Z,0
2018-11-30T02:24:36.436Z,0
2018-11-30T02:25:36.210Z,0
2018-11-30T02:26:36.465Z,0
2018-11-30T02:27:36.475Z,0
2018-11-30T02:28:36.491Z,0
2018-11-30T02:29:36.499Z,0
2018-11-30T02:30:36.525Z,0
2018-11-30T02:31:36.533Z,0
2018-11-30T02:32:36.540Z,0
2018-11-30T02:33:36.555Z,0
2018-11-30T02:34:36.562Z,0
2018-11-30T02:35:36.590Z,0
2018-11-30T02:36:36.594Z,0
2018-11-30T02:37:36.603Z,0
2018-11-30T02:38:36.647Z,0
2018-11-30T02:39:36.619Z,0
2018-11-30T02:40:36.652Z,0
2018-11-30T02:41:51.309Z,0
2018-11-30T02:42:36.670Z,0
2018-11-30T02:43:36.687Z,0
2018-11-30T02:44:36.686Z,0
2018-11-30T02:45:51.360Z,0
2018-11-30T02:46:36.731Z,0
2018-11-30T02:47:36.733Z,0
2018-11-30T02:48:36.736Z,0
2018-11-30T02:49:36.753Z,0
2018-11-30T02:50:36.780Z,0
2018-11-30T02:51:51.482Z,0
2018-11-30T02:52:36.785Z,0
2018-11-30T02:53:36.805Z,0
2018-11-30T02:55:51.484Z,0
2018-11-30T02:56:36.840Z,0
2018-11-30T02:57:36.850Z,0
2018-11-30T02:58:36.862Z,0
2018-11-30T02:59:36.880Z,0
2018-11-30T03:00:36.890Z,0
2018-11-30T03:04:36.949Z,0
2018-11-30T03:05:36.950Z,0
2018-11-30T03:06:36.957Z,0
2018-11-30T03:07:51.691Z,0
2018-11-30T03:08:36.766Z,0
2018-11-30T03:09:36.997Z,0
2018-11-30T03:10:37.012Z,0
2018-11-30T03:11:37.035Z,0
2018-11-30T03:12:37.035Z,0
2018-11-30T03:13:37.056Z,0
2018-11-30T03:14:37.059Z,0
2018-11-30T03:15:51.730Z,0
2018-11-30T03:16:37.086Z,0
2018-11-30T03:18:37.111Z,0
2018-11-30T03:19:37.148Z,0
2018-11-30T03:20:37.133Z,0
2018-11-30T03:21:37.153Z,0
2018-11-30T03:22:37.155Z,0
2018-11-30T03:23:51.835Z,0
2018-11-30T03:24:37.186Z,0
2018-11-30T03:25:37.199Z,0
2018-11-30T03:26:51.883Z,0
2018-11-30T03:27:37.219Z,0
2018-11-30T03:29:37.252Z,0
2018-11-30T03:30:37.306Z,0
2018-11-30T03:31:51.938Z,0
2018-11-30T03:32:37.320Z,0
2018-11-30T03:33:37.338Z,0
2018-11-30T03:34:37.329Z,0
2018-11-30T03:35:37.337Z,0
2018-11-30T03:36:37.346Z,0
2018-11-30T03:37:37.360Z,0
2018-11-30T03:38:37.361Z,0
2018-11-30T03:40:06.695Z,0
2018-11-30T03:40:52.051Z,0
2018-11-30T03:41:37.401Z,0
2018-11-30T03:42:37.404Z,0
2018-11-30T03:43:37.427Z,0
2018-11-30T03:44:37.440Z,0
2018-11-30T03:45:37.205Z,0
2018-11-30T03:47:52.141Z,0
2018-11-30T03:48:37.482Z,0
2018-11-30T03:49:52.162Z,0
2018-11-30T03:50:37.521Z,0
2018-11-30T03:51:52.183Z,0
2018-11-30T03:52:37.535Z,0
2018-11-30T03:53:37.545Z,0
2018-11-30T03:54:52.219Z,0
2018-11-30T03:55:37.585Z,0
2018-11-30T03:56:37.613Z,0
2018-11-30T03:57:37.592Z,0
2018-11-30T03:58:37.607Z,0
2018-11-30T03:59:37.632Z,0
2018-11-30T04:00:37.637Z,0
2018-11-30T04:01:37.651Z,0
2018-11-30T04:02:37.695Z,0
2018-11-30T04:03:37.672Z,0
2018-11-30T04:04:37.681Z,0
2018-11-30T04:05:37.717Z,0
2018-11-30T04:06:37.728Z,0
2018-11-30T04:07:37.722Z,0
2018-11-30T04:08:37.745Z,0
2018-11-30T04:10:37.760Z,0
2018-11-30T04:11:37.774Z,0
2018-11-30T04:12:37.810Z,0
2018-11-30T04:13:37.796Z,0
2018-11-30T04:14:52.470Z,0
2018-11-30T04:15:37.829Z,0
2018-11-30T04:16:37.831Z,0
2018-11-30T04:17:37.847Z,0
2018-11-30T04:18:37.872Z,0
2018-11-30T04:19:37.874Z,0
2018-11-30T04:20:37.934Z,0
2018-11-30T04:21:37.658Z,0
2018-11-30T04:23:37.930Z,0
2018-11-30T04:24:37.938Z,0
2018-11-30T04:25:37.968Z,0
2018-11-30T04:26:52.622Z,0
2018-11-30T04:28:37.981Z,0
2018-11-30T04:29:37.992Z,0
2018-11-30T04:30:38.006Z,0
2018-11-30T04:31:43.770Z,0
2018-11-30T04:32:38.036Z,0
2018-11-30T04:33:43.331Z,0
2018-11-30T04:34:52.730Z,0
2018-11-30T04:35:38.084Z,0
2018-11-30T04:36:38.082Z,0
2018-11-30T04:37:44.554Z,0
2018-11-30T04:38:38.110Z,0
2018-11-30T04:39:38.121Z,0
2018-11-30T04:41:38.154Z,0
2018-11-30T04:42:52.829Z,0
2018-11-30T04:45:38.205Z,0
2018-11-30T04:46:38.214Z,0
2018-11-30T04:47:38.220Z,0
2018-11-30T04:48:38.345Z,0
2018-11-30T04:49:52.922Z,0
2018-11-30T04:50:38.259Z,0
2018-11-30T04:51:38.266Z,0
2018-11-30T04:52:52.955Z,0
2018-11-30T04:53:52.956Z,0
2018-11-30T04:54:38.308Z,0
2018-11-30T04:55:52.981Z,0
2018-11-30T04:56:53.004Z,0
2018-11-30T04:57:38.349Z,0
2018-11-30T04:58:53.016Z,0
2018-11-30T04:59:38.366Z,0
2018-11-30T05:00:38.395Z,0
2018-11-30T05:01:53.059Z,0
2018-11-30T05:02:38.414Z,0
2018-11-30T05:03:53.079Z,0
2018-11-30T05:04:38.432Z,0
2018-11-30T05:05:39.013Z,0
2018-11-30T05:06:38.464Z,0
2018-11-30T05:07:38.477Z,0
2018-11-30T05:08:38.513Z,0
2018-11-30T05:09:38.505Z,0
2018-11-30T05:10:38.279Z,0
2018-11-30T05:12:38.536Z,0
2018-11-30T05:13:38.544Z,0
2018-11-30T05:14:53.214Z,0
2018-11-30T05:15:38.572Z,0
2018-11-30T05:16:38.579Z,0
2018-11-30T05:17:38.596Z,0
2018-11-30T05:18:53.272Z,0
2018-11-30T05:19:38.620Z,0
2018-11-30T05:20:38.634Z,0
2018-11-30T05:21:38.641Z,0
2018-11-30T05:22:53.315Z,0
2018-11-30T05:23:38.665Z,0
2018-11-30T05:24:38.680Z,0
2018-11-30T05:26:38.705Z,0
2018-11-30T05:27:38.717Z,0
2018-11-30T05:28:38.733Z,0
2018-11-30T05:29:53.403Z,0
2018-11-30T05:30:38.756Z,0
2018-11-30T05:31:38.775Z,0
2018-11-30T05:32:38.782Z,0
2018-11-30T05:33:38.802Z,0
2018-11-30T05:34:53.469Z,0
2018-11-30T05:35:38.822Z,0
2018-11-30T05:36:38.844Z,0
2018-11-30T05:37:38.844Z,0
2018-11-30T05:38:38.862Z,0
2018-11-30T05:39:38.871Z,0
2018-11-30T05:40:53.544Z,0
2018-11-30T05:41:38.896Z,0
2018-11-30T05:42:38.905Z,0
2018-11-30T05:43:38.925Z,0
2018-11-30T05:45:38.942Z,0
2018-11-30T05:46:38.956Z,0
2018-11-30T05:47:38.977Z,0
2018-11-30T05:48:38.978Z,0
2018-11-30T05:49:38.994Z,0
2018-11-30T05:50:39.004Z,0
2018-11-30T05:51:53.681Z,0
2018-11-30T05:52:39.033Z,0
2018-11-30T05:53:39.041Z,0
2018-11-30T05:54:53.719Z,0
2018-11-30T05:55:39.071Z,0
2018-11-30T05:56:39.079Z,0
2018-11-30T05:57:39.096Z,0
2018-11-30T05:58:39.102Z,0
2018-11-30T05:59:39.119Z,0
2018-11-30T06:00:39.134Z,0
2018-11-30T06:01:53.807Z,0
2018-11-30T06:02:39.155Z,0
2018-11-30T06:03:39.169Z,0
2018-11-30T06:04:39.179Z,0
2018-11-30T06:05:39.196Z,0
2018-11-30T06:06:39.206Z,0
2018-11-30T06:07:53.876Z,0
2018-11-30T06:08:39.229Z,0
2018-11-30T06:09:39.241Z,0
2018-11-30T06:10:39.255Z,0
2018-11-30T06:11:53.927Z,0
2018-11-30T06:12:39.283Z,0
2018-11-30T06:14:39.361Z,0
2018-11-30T06:15:39.319Z,0
2018-11-30T06:16:39.382Z,4
2018-11-30T06:17:54.006Z,0
2018-11-30T06:18:39.355Z,0
2018-11-30T06:19:39.367Z,0
2018-11-30T06:20:39.378Z,4
2018-11-30T06:22:39.397Z,0
2018-11-30T06:23:39.415Z,4
2018-11-30T06:25:39.450Z,4
2018-11-30T06:26:39.463Z,4
2018-11-30T06:27:39.469Z,8
2018-11-30T06:28:53.889Z,8
2018-11-30T06:29:40.611Z,8
2018-11-30T06:30:39.501Z,8
2018-11-30T06:31:39.590Z,12
2018-11-30T06:32:39.533Z,8
2018-11-30T06:33:54.200Z,12
2018-11-30T06:34:39.550Z,12
2018-11-30T06:35:39.563Z,16
2018-11-30T06:36:39.339Z,20
2018-11-30T06:37:39.595Z,20
2018-11-30T06:38:54.264Z,24
2018-11-30T06:39:39.616Z,28
2018-11-30T06:40:39.725Z,36
2018-11-30T06:41:54.303Z,36
2018-11-30T06:42:54.309Z,44
2018-11-30T06:44:39.675Z,52
2018-11-30T06:45:54.359Z,60
2018-11-30T06:46:39.703Z,60
2018-11-30T06:47:39.718Z,68
2018-11-30T06:48:39.732Z,72
2018-11-30T06:49:54.400Z,72
2018-11-30T06:50:39.766Z,72
2018-11-30T06:51:39.767Z,76
2018-11-30T06:52:39.783Z,80
2018-11-30T06:53:39.804Z,84
2018-11-30T06:54:39.808Z,92
2018-11-30T06:55:39.916Z,100
2018-11-30T06:56:54.485Z,108
2018-11-30T06:57:54.502Z,116
2018-11-30T06:59:54.526Z,124
2018-11-30T07:00:54.538Z,120
2018-11-30T07:01:54.554Z,128
2018-11-30T07:02:39.904Z,132
2018-11-30T07:03:54.582Z,144
2018-11-30T07:04:54.591Z,152
2018-11-30T07:05:39.949Z,160
2018-11-30T07:06:39.954Z,168
2018-11-30T07:07:39.967Z,180
2018-11-30T07:09:40.002Z,200
2018-11-30T07:10:40.010Z,208
2018-11-30T07:11:40.017Z,216
2018-11-30T07:12:40.032Z,228
2018-11-30T07:13:54.702Z,240
2018-11-30T07:14:40.051Z,252
2018-11-30T07:16:54.770Z,292
2018-11-30T07:17:40.123Z,308
2018-11-30T07:18:40.169Z,332
2018-11-30T07:19:40.156Z,360
2018-11-30T07:20:40.275Z,384
2018-11-30T07:21:40.211Z,408
2018-11-30T07:22:54.883Z,436
2018-11-30T07:23:40.263Z,452
2018-11-30T07:24:40.221Z,476
2018-11-30T07:25:40.242Z,500
2018-11-30T07:26:39.993Z,528
2018-11-30T07:27:40.253Z,556
2018-11-30T07:28:40.257Z,584
2018-11-30T07:29:40.272Z,608
2018-11-30T07:30:40.282Z,628
2018-11-30T07:31:40.714Z,644
2018-11-30T07:32:40.322Z,660
2018-11-30T07:33:40.329Z,664
2018-11-30T07:34:40.328Z,668
2018-11-30T07:35:40.360Z,660
2018-11-30T07:36:55.015Z,656
2018-11-30T07:37:55.561Z,648
2018-11-30T07:38:40.384Z,652
2018-11-30T07:40:40.423Z,664
2018-11-30T07:41:40.835Z,676
2018-11-30T07:43:40.451Z,708
2018-11-30T07:44:40.469Z,736
2018-11-30T07:45:40.464Z,764
2018-11-30T07:46:40.473Z,784
2018-11-30T07:47:40.481Z,808
2018-11-30T07:48:40.504Z,824
2018-11-30T07:49:40.507Z,836
2018-11-30T07:50:40.566Z,848
2018-11-30T07:51:41.080Z,856
2018-11-30T07:52:55.210Z,868
2018-11-30T07:53:40.558Z,868
2018-11-30T07:54:40.567Z,880
2018-11-30T07:55:40.587Z,912
2018-11-30T07:56:40.628Z,956
2018-11-30T07:57:40.639Z,988
2018-11-30T07:58:55.279Z,1016
2018-11-30T07:59:40.647Z,1032
2018-11-30T08:00:40.658Z,1056
2018-11-30T08:01:40.991Z,1092
2018-11-30T08:02:40.657Z,1116
2018-11-30T08:03:40.689Z,1136
2018-11-30T08:04:40.712Z,1160
2018-11-30T08:05:40.719Z,1176
2018-11-30T08:06:40.732Z,1176
2018-11-30T08:07:40.859Z,1152
2018-11-30T08:08:55.407Z,1112
2018-11-30T08:09:40.766Z,1084
2018-11-30T08:10:40.776Z,1064
2018-11-30T08:11:41.022Z,1060
2018-11-30T08:12:41.063Z,1072
2018-11-30T08:13:40.821Z,1084
2018-11-30T08:14:40.821Z,1092
2018-11-30T08:15:55.516Z,1100
2018-11-30T08:16:40.853Z,1112
2018-11-30T08:17:57.745Z,1156
2018-11-30T08:19:40.889Z,1228
2018-11-30T08:20:40.900Z,1252
2018-11-30T08:21:40.660Z,1280
2018-11-30T08:23:40.938Z,1364
2018-11-30T08:24:55.602Z,1440
2018-11-30T08:25:40.703Z,1484
2018-11-30T08:26:40.972Z,1536
2018-11-30T08:27:40.979Z,1592
2018-11-30T08:28:40.990Z,1644
2018-11-30T08:29:41.105Z,1688
2018-11-30T08:30:41.016Z,1728
2018-11-30T08:31:41.039Z,1764
2018-11-30T08:32:41.045Z,1804
2018-11-30T08:33:41.058Z,1844
2018-11-30T08:34:41.067Z,1892
2018-11-30T08:35:41.085Z,1936
2018-11-30T08:37:41.108Z,2040
2018-11-30T08:39:55.792Z,2200
2018-11-30T08:40:41.144Z,2252
2018-11-30T08:41:41.159Z,2324
2018-11-30T08:42:41.179Z,2392
2018-11-30T08:43:41.184Z,2448
2018-11-30T08:44:41.198Z,2488
2018-11-30T08:45:41.226Z,2504
2018-11-30T08:46:41.228Z,2500
2018-11-30T08:47:41.239Z,2488
2018-11-30T08:48:41.254Z,2468
2018-11-30T08:49:41.267Z,2436
2018-11-30T08:50:41.278Z,2392
2018-11-30T08:51:41.294Z,2348
2018-11-30T08:52:41.318Z,2292
2018-11-30T08:53:41.324Z,2236
2018-11-30T08:54:55.996Z,2176
2018-11-30T08:55:41.350Z,2144
2018-11-30T08:56:41.362Z,2112
2018-11-30T08:58:41.388Z,2072
2018-11-30T08:59:41.413Z,2052
2018-11-30T09:00:56.078Z,2036
2018-11-30T09:01:41.426Z,2028
2018-11-30T09:02:41.449Z,2012
2018-11-30T09:03:41.458Z,1992
2018-11-30T09:05:56.136Z,1956
2018-11-30T09:06:41.494Z,1952
2018-11-30T09:07:41.505Z,1948
2018-11-30T09:08:41.519Z,1952
2018-11-30T09:09:41.586Z,1956
2018-11-30T09:10:41.609Z,1960
2018-11-30T09:11:56.234Z,1952
2018-11-30T09:12:41.568Z,1920
2018-11-30T09:13:41.676Z,1856
2018-11-30T09:14:41.590Z,1772
2018-11-30T09:15:41.604Z,1684
2018-11-30T09:16:41.622Z,1604
2018-11-30T09:17:41.670Z,1544
2018-11-30T09:18:41.668Z,1496
2018-11-30T09:19:41.690Z,1464
2018-11-30T09:20:41.675Z,1448
2018-11-30T09:21:41.688Z,1444
2018-11-30T09:22:41.448Z,1448
2018-11-30T09:23:41.712Z,1452
2018-11-30T09:24:41.727Z,1456
2018-11-30T09:25:41.737Z,1472
2018-11-30T09:26:41.748Z,1496
2018-11-30T09:27:56.509Z,1544
2018-11-30T09:28:41.782Z,1568
2018-11-30T09:29:41.789Z,1604
2018-11-30T09:30:41.800Z,1636
2018-11-30T09:31:56.479Z,1664
2018-11-30T09:32:41.830Z,1676
2018-11-30T09:34:56.514Z,1648
2018-11-30T09:35:41.873Z,1616
2018-11-30T09:37:41.904Z,1540
2018-11-30T09:38:41.909Z,1480
2018-11-30T09:40:41.938Z,1368
2018-11-30T09:41:41.946Z,1324
2018-11-30T09:42:41.982Z,1288
2018-11-30T09:43:56.632Z,1260
2018-11-30T09:44:41.987Z,1248
2018-11-30T09:45:42.007Z,1244
2018-11-30T09:46:42.015Z,1240
2018-11-30T09:47:42.027Z,1248
2018-11-30T09:48:42.051Z,1276
2018-11-30T09:49:42.159Z,1312
2018-11-30T09:50:41.823Z,1344
2018-11-30T09:51:42.083Z,1372
2018-11-30T09:53:42.109Z,1436
2018-11-30T09:54:56.788Z,1460
2018-11-30T09:55:42.136Z,1468
2018-11-30T09:56:42.148Z,1484
2018-11-30T09:57:42.156Z,1516
2018-11-30T09:58:42.175Z,1552
2018-11-30T09:59:56.847Z,1592
2018-11-30T10:00:42.199Z,1632
2018-11-30T10:01:42.211Z,1672
2018-11-30T10:02:42.220Z,1680
2018-11-30T10:03:42.237Z,1680
2018-11-30T10:04:42.251Z,1692
2018-11-30T10:05:42.377Z,1704
2018-11-30T10:06:56.936Z,1744
2018-11-30T10:07:42.290Z,1776
2018-11-30T10:08:42.303Z,1800
2018-11-30T10:09:56.979Z,1820
2018-11-30T10:10:42.338Z,1840
2018-11-30T10:11:42.340Z,1868
2018-11-30T10:12:42.364Z,1904
2018-11-30T10:13:42.375Z,1944
2018-11-30T10:14:57.046Z,2008
2018-11-30T10:15:42.402Z,2032
2018-11-30T10:16:57.074Z,2036
2018-11-30T10:17:42.422Z,2012
2018-11-30T10:18:42.489Z,1964
2018-11-30T10:19:42.455Z,1908
2018-11-30T10:20:42.469Z,1888
2018-11-30T10:21:42.479Z,1888
2018-11-30T10:23:42.604Z,1932
2018-11-30T10:24:57.178Z,1960
2018-11-30T10:25:42.534Z,1976
2018-11-30T10:26:42.544Z,1976
2018-11-30T10:27:42.661Z,1968
2018-11-30T10:28:42.576Z,1960
2018-11-30T10:29:42.589Z,1928
2018-11-30T10:30:42.602Z,1884
2018-11-30T10:31:42.615Z,1816
2018-11-30T10:32:42.629Z,1748
2018-11-30T10:33:57.301Z,1664
2018-11-30T10:34:42.690Z,1616
2018-11-30T10:35:42.667Z,1568
2018-11-30T10:36:42.693Z,1524
2018-11-30T10:37:42.703Z,1468
2018-11-30T10:38:57.369Z,1384
2018-11-30T10:39:42.727Z,1348
2018-11-30T10:40:42.731Z,1300
2018-11-30T10:41:42.751Z,1256
2018-11-30T10:42:42.766Z,1224
2018-11-30T10:43:42.827Z,1220
2018-11-30T10:44:42.788Z,1232
2018-11-30T10:45:42.800Z,1264
2018-11-30T10:46:57.474Z,1344
2018-11-30T10:47:42.828Z,1408
2018-11-30T10:48:42.861Z,1524
2018-11-30T10:49:42.862Z,1620
2018-11-30T10:50:42.871Z,1724
2018-11-30T10:51:42.881Z,1860
2018-11-30T10:52:42.908Z,2020
2018-11-30T10:53:42.914Z,2156
2018-11-30T10:54:42.920Z,2232
2018-11-30T10:55:57.597Z,2224
2018-11-30T10:56:57.609Z,2148
2018-11-30T10:57:42.966Z,2056
2018-11-30T10:58:42.979Z,1912
2018-11-30T10:59:42.987Z,1768
2018-11-30T11:00:43.001Z,1656
2018-11-30T11:01:43.013Z,1584
2018-11-30T11:02:57.695Z,1516
2018-11-30T11:03:43.041Z,1464
2018-11-30T11:04:43.102Z,1384
2018-11-30T11:05:43.069Z,1312
2018-11-30T11:06:43.119Z,1244
2018-11-30T11:07:57.757Z,1180
2018-11-30T11:08:43.117Z,1172
2018-11-30T11:09:42.875Z,1200
2018-11-30T11:10:43.138Z,1276
2018-11-30T11:11:43.147Z,1364
2018-11-30T11:12:43.162Z,1468
2018-11-30T11:13:43.193Z,1560
2018-11-30T11:14:43.212Z,1652
2018-11-30T11:15:57.860Z,1740
2018-11-30T11:16:42.971Z,1792
2018-11-30T11:17:43.237Z,1856
2018-11-30T11:18:57.930Z,1928
2018-11-30T11:20:43.262Z,1996
2018-11-30T11:21:43.287Z,1972
2018-11-30T11:22:43.298Z,1932
2018-11-30T11:23:43.310Z,1876
2018-11-30T11:24:43.373Z,1788
2018-11-30T11:25:43.338Z,1692
2018-11-30T11:26:43.363Z,1572
2018-11-30T11:27:43.375Z,1436
2018-11-30T11:28:43.139Z,1292
2018-11-30T11:29:43.388Z,1196
2018-11-30T11:30:43.403Z,1144
2018-11-30T11:31:43.461Z,1136
2018-11-30T11:32:43.445Z,1164
2018-11-30T11:33:43.445Z,1212
2018-11-30T11:34:58.115Z,1284
2018-11-30T11:35:58.136Z,1324
2018-11-30T11:36:43.703Z,1344
2018-11-30T11:37:43.495Z,1372
2018-11-30T11:38:58.169Z,1392
2018-11-30T11:39:43.523Z,1412
2018-11-30T11:40:43.544Z,1468
2018-11-30T11:41:43.561Z,1564
2018-11-30T11:42:43.560Z,1664
2018-11-30T11:43:43.580Z,1744
2018-11-30T11:44:43.597Z,1788
2018-11-30T11:45:58.277Z,1776
2018-11-30T11:46:43.617Z,1764
2018-11-30T11:47:43.725Z,1756
2018-11-30T11:48:43.639Z,1760
2018-11-30T11:49:58.316Z,1792
2018-11-30T11:50:43.674Z,1792
2018-11-30T11:51:48.728Z,1788
2018-11-30T11:52:43.709Z,1776
2018-11-30T11:53:43.767Z,1760
2018-11-30T11:54:58.380Z,1732
2018-11-30T11:55:43.737Z,1728
2018-11-30T11:57:43.762Z,1704
2018-11-30T11:58:43.784Z,1692
2018-11-30T11:59:43.794Z,1680
2018-11-30T12:00:43.805Z,1648
2018-11-30T12:01:58.469Z,1616
2018-11-30T12:02:43.825Z,1588
2018-11-30T12:03:43.837Z,1564
2018-11-30T12:04:43.854Z,1560
2018-11-30T12:05:43.864Z,1580
2018-11-30T12:06:44.116Z,1632
2018-11-30T12:07:43.888Z,1692
2018-11-30T12:08:43.901Z,1756
2018-11-30T12:09:43.918Z,1824
2018-11-30T12:10:43.927Z,1880
2018-11-30T12:11:43.941Z,1896
2018-11-30T12:12:43.963Z,1892
2018-11-30T12:13:43.967Z,1876
2018-11-30T12:14:44.009Z,1856
2018-11-30T12:16:44.014Z,1812
2018-11-30T12:17:44.022Z,1796
2018-11-30T12:18:44.036Z,1792
2018-11-30T12:19:44.051Z,1812
2018-11-30T12:20:44.062Z,1860
2018-11-30T12:21:58.732Z,1920
2018-11-30T12:22:44.088Z,1960
2018-11-30T12:23:44.104Z,2008
2018-11-30T12:24:44.115Z,2040
2018-11-30T12:25:44.130Z,2064
2018-11-30T12:26:44.168Z,2064
2018-11-30T12:27:44.157Z,2052
2018-11-30T12:29:44.181Z,1940
2018-11-30T12:30:44.193Z,1872
2018-11-30T12:31:58.871Z,1780
2018-11-30T12:32:44.224Z,1716
2018-11-30T12:33:44.237Z,1636
2018-11-30T12:34:44.249Z,1556
2018-11-30T12:35:49.661Z,1476
2018-11-30T12:36:44.294Z,1420
2018-11-30T12:37:58.952Z,1376
2018-11-30T12:38:44.298Z,1352
2018-11-30T12:39:44.313Z,1324
2018-11-30T12:40:58.989Z,1296
2018-11-30T12:42:45.169Z,1264
2018-11-30T12:43:44.369Z,1252
2018-11-30T12:44:44.432Z,1232
2018-11-30T12:45:44.388Z,1208
2018-11-30T12:46:44.413Z,1196
2018-11-30T12:47:59.083Z,1196
2018-11-30T12:48:44.435Z,1192
2018-11-30T12:49:44.445Z,1184
2018-11-30T12:50:59.162Z,1176
2018-11-30T12:51:44.475Z,1168
2018-11-30T12:52:59.154Z,1160
2018-11-30T12:53:59.161Z,1152
2018-11-30T12:54:44.519Z,1160
2018-11-30T12:55:44.528Z,1180
2018-11-30T12:56:44.545Z,1208
2018-11-30T12:57:44.552Z,1248
2018-11-30T12:58:44.565Z,1272
2018-11-30T12:59:44.330Z,1288
2018-11-30T13:00:44.597Z,1288
2018-11-30T13:01:44.606Z,1280
2018-11-30T13:02:44.632Z,1248
2018-11-30T13:03:44.641Z,1196
2018-11-30T13:04:44.643Z,1140
2018-11-30T13:05:44.667Z,1088
2018-11-30T13:06:44.682Z,1048
2018-11-30T13:07:50.528Z,1016
2018-11-30T13:08:44.707Z,996
2018-11-30T13:09:59.391Z,980
2018-11-30T13:10:44.726Z,972
2018-11-30T13:11:44.739Z,968
2018-11-30T13:12:44.746Z,956
2018-11-30T13:13:44.766Z,948
2018-11-30T13:15:44.799Z,900
2018-11-30T13:16:44.808Z,864
2018-11-30T13:17:44.821Z,824
2018-11-30T13:18:44.832Z,788
2018-11-30T13:19:44.842Z,764
2018-11-30T13:20:44.863Z,748
2018-11-30T13:22:44.881Z,728
2018-11-30T13:23:44.900Z,720
2018-11-30T13:24:59.572Z,712
2018-11-30T13:25:44.931Z,704
2018-11-30T13:26:44.940Z,696
2018-11-30T13:27:44.951Z,684
2018-11-30T13:28:44.966Z,672
2018-11-30T13:29:44.978Z,660
2018-11-30T13:30:44.992Z,648
2018-11-30T13:31:45.009Z,636
2018-11-30T13:32:59.681Z,632
2018-11-30T13:33:45.791Z,624
2018-11-30T13:35:45.064Z,612
2018-11-30T13:36:45.072Z,604
2018-11-30T13:37:45.089Z,596
2018-11-30T13:38:44.856Z,588
2018-11-30T13:39:45.113Z,576
2018-11-30T13:40:45.125Z,560
2018-11-30T13:41:45.141Z,548
2018-11-30T13:42:45.151Z,532
2018-11-30T13:43:45.173Z,524
2018-11-30T13:44:45.176Z,512
2018-11-30T13:45:45.196Z,500
2018-11-30T13:46:45.203Z,500
2018-11-30T13:47:45.217Z,504
2018-11-30T13:48:59.890Z,512
2018-11-30T13:49:45.244Z,520
2018-11-30T13:50:45.260Z,528
2018-11-30T13:52:45.284Z,536
2018-11-30T13:53:45.312Z,540
2018-11-30T13:54:45.312Z,536
2018-11-30T13:55:45.325Z,528
2018-11-30T13:57:00.006Z,524
2018-11-30T13:57:45.351Z,524
2018-11-30T13:58:45.363Z,532
2018-11-30T13:59:45.376Z,536
2018-11-30T14:00:45.391Z,544
2018-11-30T14:01:45.399Z,548
2018-11-30T14:02:45.413Z,544
2018-11-30T14:03:45.438Z,544
2018-11-30T14:04:45.444Z,540
2018-11-30T14:05:45.454Z,532
2018-11-30T14:06:45.475Z,524
2018-11-30T14:07:45.484Z,516
2018-11-30T14:08:45.496Z,508
2018-11-30T14:09:45.523Z,496
2018-11-30T14:10:47.362Z,484
2018-11-30T14:11:45.537Z,468
2018-11-30T14:13:00.215Z,444
2018-11-30T14:14:00.225Z,424
2018-11-30T14:14:45.575Z,408
2018-11-30T14:15:45.588Z,388
2018-11-30T14:17:00.259Z,356
2018-11-30T14:17:45.616Z,344
2018-11-30T14:18:45.627Z,324
2018-11-30T14:20:45.648Z,280
2018-11-30T14:22:00.322Z,252
2018-11-30T14:23:00.337Z,236
2018-11-30T14:23:45.685Z,224
2018-11-30T14:24:45.707Z,208
2018-11-30T14:25:45.715Z,188
2018-11-30T14:26:45.732Z,172
2018-11-30T14:27:45.746Z,160
2018-11-30T14:29:00.416Z,144
2018-11-30T14:29:45.767Z,140
2018-11-30T14:30:45.778Z,128
2018-11-30T14:31:45.792Z,124
2018-11-30T14:33:45.817Z,108
2018-11-30T14:34:45.833Z,104
2018-11-30T14:36:00.510Z,96
2018-11-30T14:36:45.857Z,92
2018-11-30T14:37:45.888Z,88
2018-11-30T14:38:45.886Z,84
2018-11-30T14:39:45.891Z,80
2018-11-30T14:40:47.069Z,72
2018-11-30T14:41:45.920Z,72
2018-11-30T14:42:45.934Z,68
2018-11-30T14:43:45.951Z,68
2018-11-30T14:45:00.617Z,64
2018-11-30T14:45:45.971Z,60
2018-11-30T14:46:45.985Z,60
2018-11-30T14:47:45.996Z,60
2018-11-30T14:49:46.022Z,52
2018-11-30T14:50:46.037Z,48
2018-11-30T14:51:46.054Z,44
2018-11-30T14:52:46.063Z,44
2018-11-30T14:54:46.088Z,36
2018-11-30T14:57:00.779Z,32
2018-11-30T14:57:46.130Z,28
2018-11-30T14:58:46.140Z,28